createdAt,value
2022-09-04T00:00:52.244Z,0.70
2022-09-04T00:01:52.256Z,0.70
2022-09-04T00:02:52.226Z,0.70
2022-09-04T00:03:52.397Z,0.70
2022-09-04T00:04:52.342Z,0.70
2022-09-04T00:05:52.206Z,0.70
2022-09-04T00:06:52.194Z,0.70
2022-09-04T00:07:52.225Z,0.70
2022-09-04T00:08:52.177Z,0.80
2022-09-04T00:09:52.205Z,0.70
2022-09-04T00:10:52.169Z,0.80
2022-09-04T00:11:52.170Z,0.60
2022-09-04T00:12:52.184Z,0.70
2022-09-04T00:13:52.151Z,0.70
2022-09-04T00:14:52.192Z,0.60
2022-09-04T00:15:52.141Z,0.60
2022-09-04T00:16:52.176Z,0.60
2022-09-04T00:17:52.127Z,0.80
2022-09-04T00:18:52.108Z,0.60
2022-09-04T00:19:52.122Z,0.60
2022-09-04T00:20:52.102Z,0.70
2022-09-04T00:21:52.080Z,0.70
2022-09-04T00:22:52.070Z,0.70
2022-09-04T00:23:52.087Z,0.80
2022-09-04T00:24:52.077Z,0.70
2022-09-04T00:25:52.064Z,0.60
2022-09-04T00:26:52.110Z,0.60
2022-09-04T00:27:52.038Z,0.70
2022-09-04T00:28:52.032Z,0.80
2022-09-04T00:29:52.051Z,0.60
2022-09-04T00:30:52.034Z,0.60
2022-09-04T00:31:52.003Z,0.70
2022-09-04T00:32:52.019Z,0.70
2022-09-04T00:33:51.973Z,0.70
2022-09-04T00:34:52.010Z,0.80
2022-09-04T00:35:51.994Z,0.70
2022-09-04T00:36:52.039Z,0.90
2022-09-04T00:37:51.959Z,0.70
2022-09-04T00:38:51.962Z,0.80
2022-09-04T00:39:52.021Z,0.90
2022-09-04T00:40:51.971Z,0.80
2022-09-04T00:41:51.953Z,0.70
2022-09-04T00:42:51.940Z,0.70
2022-09-04T00:43:51.927Z,0.80
2022-09-04T00:44:51.977Z,0.70
2022-09-04T00:45:52.017Z,0.60
2022-09-04T00:46:51.922Z,0.80
2022-09-04T00:47:52.899Z,0.90
2022-09-04T00:48:51.898Z,0.80
2022-09-04T00:49:51.904Z,0.80
2022-09-04T00:50:51.873Z,0.80
2022-09-04T00:51:51.886Z,0.70
2022-09-04T00:52:57.390Z,0.80
2022-09-04T00:53:52.863Z,0.80
2022-09-04T00:54:51.876Z,0.70
2022-09-04T00:55:51.852Z,0.80
2022-09-04T00:56:51.840Z,0.60
2022-09-04T00:57:51.828Z,0.70
2022-09-04T00:58:51.826Z,0.70
2022-09-04T00:59:51.854Z,0.80
2022-09-04T01:00:51.882Z,0.70
2022-09-04T01:01:51.969Z,0.70
2022-09-04T01:02:51.810Z,0.70
2022-09-04T01:03:51.804Z,0.80
2022-09-04T01:04:51.803Z,0.70
2022-09-04T01:05:51.770Z,0.70
2022-09-04T01:06:51.775Z,0.90
2022-09-04T01:07:51.757Z,0.70
2022-09-04T01:08:56.169Z,0.60
2022-09-04T01:09:51.774Z,0.70
2022-09-04T01:10:51.749Z,0.80
2022-09-04T01:11:51.745Z,0.90
2022-09-04T01:12:51.728Z,0.70
2022-09-04T01:13:51.869Z,0.80
2022-09-04T01:14:53.194Z,0.80
2022-09-04T01:15:51.708Z,1.10
2022-09-04T01:16:51.790Z,0.60
2022-09-04T01:17:51.685Z,0.90
2022-09-04T01:18:51.721Z,0.80
2022-09-04T01:19:51.739Z,0.70
2022-09-04T01:20:51.679Z,0.70
2022-09-04T01:21:51.662Z,0.80
2022-09-04T01:22:51.678Z,0.80
2022-09-04T01:23:51.653Z,0.80
2022-09-04T01:24:51.665Z,0.70
2022-09-04T01:25:51.650Z,0.70
2022-09-04T01:26:51.678Z,0.70
2022-09-04T01:27:51.624Z,0.70
2022-09-04T01:28:51.624Z,0.80
2022-09-04T01:29:51.867Z,0.70
2022-09-04T01:30:51.597Z,0.60
2022-09-04T01:31:51.617Z,0.80
2022-09-04T01:32:51.593Z,0.70
2022-09-04T01:33:51.579Z,0.80
2022-09-04T01:34:51.600Z,0.80
2022-09-04T01:35:51.572Z,0.70
2022-09-04T01:36:51.588Z,0.70
2022-09-04T01:37:51.563Z,0.80
2022-09-04T01:38:51.543Z,0.80
2022-09-04T01:39:51.636Z,0.80
2022-09-04T01:40:51.541Z,0.80
2022-09-04T01:41:51.541Z,0.80
2022-09-04T01:42:51.553Z,0.80
2022-09-04T01:43:51.523Z,0.80
2022-09-04T01:44:51.539Z,0.80
2022-09-04T01:45:51.550Z,0.80
2022-09-04T01:46:51.499Z,0.80
2022-09-04T01:47:51.505Z,0.70
2022-09-04T01:48:51.484Z,0.90
2022-09-04T01:49:51.503Z,0.80
2022-09-04T01:50:51.465Z,0.80
2022-09-04T01:51:51.458Z,0.80
2022-09-04T01:52:51.465Z,0.90
2022-09-04T01:53:51.453Z,0.70
2022-09-04T01:54:51.469Z,1.00
2022-09-04T01:55:51.436Z,0.90
2022-09-04T01:56:51.427Z,0.90
2022-09-04T01:57:51.430Z,0.90
2022-09-04T01:58:51.408Z,0.90
2022-09-04T01:59:53.672Z,0.80
2022-09-04T02:00:52.422Z,0.80
2022-09-04T02:01:52.414Z,0.80
2022-09-04T02:02:52.913Z,0.80
2022-09-04T02:03:51.380Z,0.90
2022-09-04T02:04:51.421Z,0.90
2022-09-04T02:05:51.364Z,0.80
2022-09-04T02:06:51.380Z,0.80
2022-09-04T02:07:51.350Z,0.80
2022-09-04T02:08:51.415Z,0.90
2022-09-04T02:09:54.043Z,1.00
2022-09-04T02:10:51.314Z,0.80
2022-09-04T02:11:51.319Z,0.80
2022-09-04T02:12:52.328Z,0.80
2022-09-04T02:13:51.303Z,0.80
2022-09-04T02:14:51.313Z,0.90
2022-09-04T02:15:51.287Z,0.90
2022-09-04T02:16:51.298Z,0.80
2022-09-04T02:17:51.282Z,0.80
2022-09-04T02:18:51.281Z,0.70
2022-09-04T02:19:51.290Z,0.80
2022-09-04T02:20:51.259Z,0.90
2022-09-04T02:21:51.259Z,0.80
2022-09-04T02:22:51.246Z,0.80
2022-09-04T02:23:51.245Z,0.70
2022-09-04T02:24:51.256Z,0.80
2022-09-04T02:25:51.233Z,0.90
2022-09-04T02:26:51.214Z,0.90
2022-09-04T02:27:51.207Z,0.80
2022-09-04T02:28:51.209Z,0.80
2022-09-04T02:29:51.214Z,0.80
2022-09-04T02:30:54.199Z,0.80
2022-09-04T02:31:51.243Z,0.80
2022-09-04T02:32:51.183Z,0.80
2022-09-04T02:33:51.169Z,0.80
2022-09-04T02:34:51.198Z,1.00
2022-09-04T02:35:51.152Z,0.80
2022-09-04T02:36:51.147Z,0.80
2022-09-04T02:37:51.161Z,0.90
2022-09-04T02:38:51.149Z,0.80
2022-09-04T02:39:51.241Z,0.80
2022-09-04T02:40:51.121Z,0.70
2022-09-04T02:41:51.207Z,0.80
2022-09-04T02:42:51.118Z,0.70
2022-09-04T02:43:51.108Z,0.70
2022-09-04T02:44:51.105Z,0.90
2022-09-04T02:45:51.085Z,0.80
2022-09-04T02:46:51.197Z,0.70
2022-09-04T02:47:51.070Z,0.70
2022-09-04T02:48:51.095Z,0.90
2022-09-04T02:49:51.076Z,0.80
2022-09-04T02:50:51.083Z,1.00
2022-09-04T02:51:51.072Z,0.70
2022-09-04T02:52:51.049Z,0.90
2022-09-04T02:53:51.022Z,0.80
2022-09-04T02:54:51.079Z,0.90
2022-09-04T02:55:51.026Z,0.80
2022-09-04T02:56:51.006Z,1.00
2022-09-04T02:57:51.029Z,0.90
2022-09-04T02:58:51.006Z,0.80
2022-09-04T02:59:51.004Z,0.80
2022-09-04T03:00:51.033Z,0.90
2022-09-04T03:01:51.039Z,0.80
2022-09-04T03:02:50.971Z,0.90
2022-09-04T03:03:50.970Z,0.90
2022-09-04T03:04:50.987Z,0.90
2022-09-04T03:05:51.006Z,0.90
2022-09-04T03:06:50.942Z,1.00
2022-09-04T03:07:50.935Z,0.90
2022-09-04T03:08:51.618Z,0.80
2022-09-04T03:09:50.928Z,0.80
2022-09-04T03:10:50.908Z,0.80
2022-09-04T03:11:50.909Z,0.80
2022-09-04T03:12:50.920Z,0.80
2022-09-04T03:13:50.886Z,0.90
2022-09-04T03:14:50.906Z,0.80
2022-09-04T03:15:50.925Z,0.70
2022-09-04T03:16:50.869Z,0.90
2022-09-04T03:17:50.865Z,0.80
2022-09-04T03:18:50.888Z,0.80
2022-09-04T03:19:50.904Z,0.70
2022-09-04T03:20:50.850Z,0.90
2022-09-04T03:21:50.829Z,0.80
2022-09-04T03:22:50.836Z,0.80
2022-09-04T03:23:50.832Z,0.80
2022-09-04T03:24:50.852Z,0.90
2022-09-04T03:25:50.816Z,0.80
2022-09-04T03:26:50.815Z,0.90
2022-09-04T03:27:50.830Z,0.80
2022-09-04T03:28:50.801Z,0.80
2022-09-04T03:29:50.801Z,0.90
2022-09-04T03:30:50.787Z,0.80
2022-09-04T03:31:50.865Z,1.00
2022-09-04T03:32:50.787Z,0.90
2022-09-04T03:33:50.766Z,1.00
2022-09-04T03:34:50.783Z,1.00
2022-09-04T03:35:50.748Z,0.80
2022-09-04T03:36:50.742Z,0.90
2022-09-04T03:37:50.741Z,1.10
2022-09-04T03:38:50.720Z,0.90
2022-09-04T03:39:50.835Z,1.10
2022-09-04T03:40:50.712Z,1.00
2022-09-04T03:41:50.719Z,1.00
2022-09-04T03:42:50.689Z,0.90
2022-09-04T03:43:50.691Z,0.90
2022-09-04T03:44:52.504Z,0.90
2022-09-04T03:45:50.679Z,0.80
2022-09-04T03:46:50.766Z,0.80
2022-09-04T03:47:50.673Z,0.90
2022-09-04T03:48:50.649Z,1.00
2022-09-04T03:49:50.660Z,1.00
2022-09-04T03:50:50.637Z,1.00
2022-09-04T03:51:50.631Z,1.10
2022-09-04T03:52:50.644Z,1.00
2022-09-04T03:53:50.624Z,1.00
2022-09-04T03:54:50.633Z,0.90
2022-09-04T03:55:50.610Z,0.90
2022-09-04T03:56:50.603Z,1.00
2022-09-04T03:57:50.591Z,0.90
2022-09-04T03:58:50.585Z,0.90
2022-09-04T03:59:50.619Z,0.90
2022-09-04T04:00:50.628Z,0.90
2022-09-04T04:01:50.576Z,0.90
2022-09-04T04:02:50.696Z,0.90
2022-09-04T04:03:50.556Z,0.80
2022-09-04T04:04:50.563Z,0.90
2022-09-04T04:05:50.529Z,0.90
2022-09-04T04:06:50.529Z,0.90
2022-09-04T04:07:50.536Z,0.80
2022-09-04T04:08:50.524Z,0.90
2022-09-04T04:09:50.519Z,0.80
2022-09-04T04:10:50.506Z,1.00
2022-09-04T04:11:50.493Z,0.90
2022-09-04T04:12:50.511Z,0.80
2022-09-04T04:13:50.514Z,1.00
2022-09-04T04:14:50.500Z,0.90
2022-09-04T04:15:50.524Z,0.80
2022-09-04T04:16:56.145Z,1.10
2022-09-04T04:17:50.480Z,1.00
2022-09-04T04:18:50.456Z,0.80
2022-09-04T04:19:50.471Z,0.90
2022-09-04T04:20:50.432Z,1.00
2022-09-04T04:21:50.417Z,0.90
2022-09-04T04:22:50.431Z,1.00
2022-09-04T04:23:50.421Z,1.10
2022-09-04T04:24:50.445Z,1.10
2022-09-04T04:25:52.778Z,1.00
2022-09-04T04:26:54.581Z,1.00
2022-09-04T04:27:51.419Z,1.30
2022-09-04T04:28:50.397Z,1.10
2022-09-04T04:29:50.387Z,1.10
2022-09-04T04:30:50.390Z,1.00
2022-09-04T04:31:50.414Z,0.90
2022-09-04T04:32:50.398Z,1.20
2022-09-04T04:33:50.383Z,1.00
2022-09-04T04:34:50.359Z,1.00
2022-09-04T04:35:50.331Z,1.00
2022-09-04T04:36:50.334Z,1.00
2022-09-04T04:37:50.312Z,1.00
2022-09-04T04:38:50.307Z,1.20
2022-09-04T04:39:50.395Z,1.10
2022-09-04T04:40:50.298Z,1.00
2022-09-04T04:41:50.289Z,1.10
2022-09-04T04:42:50.293Z,1.00
2022-09-04T04:43:50.278Z,1.00
2022-09-04T04:44:50.290Z,1.20
2022-09-04T04:45:50.253Z,1.00
2022-09-04T04:46:50.289Z,1.10
2022-09-04T04:47:50.255Z,1.10
2022-09-04T04:48:50.236Z,1.10
2022-09-04T04:49:50.242Z,0.90
2022-09-04T04:50:50.221Z,0.90
2022-09-04T04:51:50.235Z,1.00
2022-09-04T04:52:50.228Z,1.00
2022-09-04T04:53:50.209Z,1.10
2022-09-04T04:54:50.211Z,1.10
2022-09-04T04:55:50.187Z,0.90
2022-09-04T04:56:50.181Z,1.10
2022-09-04T04:57:50.183Z,1.10
2022-09-04T04:58:50.156Z,0.90
2022-09-04T04:59:50.240Z,1.00
2022-09-04T05:00:50.180Z,1.10
2022-09-04T05:01:50.247Z,1.20
2022-09-04T05:02:50.192Z,1.10
2022-09-04T05:03:50.133Z,1.00
2022-09-04T05:04:50.142Z,1.00
2022-09-04T05:05:50.121Z,1.00
2022-09-04T05:06:50.140Z,1.10
2022-09-04T05:07:50.102Z,1.00
2022-09-04T05:08:50.099Z,0.90
2022-09-04T05:09:50.117Z,1.10
2022-09-04T05:10:50.117Z,1.00
2022-09-04T05:11:50.077Z,1.00
2022-09-04T05:12:50.096Z,1.00
2022-09-04T05:13:51.481Z,1.20
2022-09-04T05:14:50.093Z,0.80
2022-09-04T05:16:08.030Z,1.00
2022-09-04T05:16:55.571Z,1.10
2022-09-04T05:17:51.034Z,1.00
2022-09-04T05:18:50.032Z,0.90
2022-09-04T05:19:50.423Z,1.00
2022-09-04T05:20:50.030Z,0.90
2022-09-04T05:21:50.001Z,0.90
2022-09-04T05:22:49.994Z,1.00
2022-09-04T05:23:50.004Z,0.90
2022-09-04T05:24:50.121Z,1.00
2022-09-04T05:25:51.007Z,0.90
2022-09-04T05:26:49.963Z,0.90
2022-09-04T05:27:50.001Z,0.90
2022-09-04T05:28:49.950Z,0.90
2022-09-04T05:29:49.982Z,0.90
2022-09-04T05:30:49.983Z,1.00
2022-09-04T05:31:49.942Z,0.80
2022-09-04T05:32:49.929Z,0.80
2022-09-04T05:33:49.921Z,1.00
2022-09-04T05:34:49.972Z,0.70
2022-09-04T05:35:49.901Z,0.90
2022-09-04T05:36:49.906Z,1.00
2022-09-04T05:37:49.896Z,0.90
2022-09-04T05:38:49.879Z,0.80
2022-09-04T05:39:49.973Z,0.90
2022-09-04T05:40:49.872Z,1.10
2022-09-04T05:41:49.864Z,1.00
2022-09-04T05:42:49.862Z,1.10
2022-09-04T05:43:50.006Z,1.00
2022-09-04T05:44:49.878Z,0.90
2022-09-04T05:45:49.824Z,1.00
2022-09-04T05:46:51.877Z,1.10
2022-09-04T05:47:49.833Z,1.00
2022-09-04T05:48:49.819Z,1.20
2022-09-04T05:49:49.838Z,1.60
2022-09-04T05:50:49.802Z,1.90
2022-09-04T05:51:49.800Z,1.70
2022-09-04T05:52:49.808Z,1.80
2022-09-04T05:53:49.778Z,2.20
2022-09-04T05:54:49.786Z,2.40
2022-09-04T05:55:49.761Z,2.50
2022-09-04T05:56:49.769Z,2.70
2022-09-04T05:57:49.757Z,2.20
2022-09-04T05:58:49.746Z,2.10
2022-09-04T05:59:49.759Z,2.10
2022-09-04T06:00:49.739Z,2.20
2022-09-04T06:01:52.000Z,2.70
2022-09-04T06:02:49.776Z,2.60
2022-09-04T06:03:49.708Z,2.50
2022-09-04T06:04:49.727Z,3.20
2022-09-04T06:05:49.705Z,3.20
2022-09-04T06:06:49.695Z,3.60
2022-09-04T06:07:49.684Z,3.90
2022-09-04T06:08:49.670Z,2.90
2022-09-04T06:09:49.686Z,1.60
2022-09-04T06:10:49.661Z,1.90
2022-09-04T06:11:49.643Z,1.50
2022-09-04T06:12:49.650Z,1.60
2022-09-04T06:13:49.655Z,1.90
2022-09-04T06:14:49.639Z,1.70
2022-09-04T06:15:49.725Z,1.20
2022-09-04T06:16:49.620Z,1.10
2022-09-04T06:17:49.602Z,1.10
2022-09-04T06:18:49.597Z,1.00
2022-09-04T06:19:49.612Z,0.90
2022-09-04T06:20:49.585Z,1.00
2022-09-04T06:21:49.574Z,0.80
2022-09-04T06:22:53.821Z,1.00
2022-09-04T06:23:51.580Z,1.00
2022-09-04T06:24:49.570Z,0.90
2022-09-04T06:25:49.552Z,0.90
2022-09-04T06:26:49.540Z,0.80
2022-09-04T06:27:49.540Z,0.80
2022-09-04T06:28:50.539Z,0.80
2022-09-04T06:29:49.558Z,1.00
2022-09-04T06:30:49.565Z,0.70
2022-09-04T06:31:49.500Z,0.80
2022-09-04T06:32:49.547Z,0.80
2022-09-04T06:33:49.964Z,1.00
2022-09-04T06:34:49.927Z,0.90
2022-09-04T06:35:50.864Z,0.90
2022-09-04T06:36:50.195Z,1.00
2022-09-04T06:37:49.469Z,1.10
2022-09-04T06:38:49.459Z,1.00
2022-09-04T06:39:49.481Z,1.00
2022-09-04T06:40:49.469Z,1.30
2022-09-04T06:41:49.431Z,1.30
2022-09-04T06:42:49.443Z,1.30
2022-09-04T06:43:50.452Z,1.20
2022-09-04T06:44:49.439Z,1.10
2022-09-04T06:45:49.423Z,1.20
2022-09-04T06:46:49.463Z,1.10
2022-09-04T06:47:49.400Z,1.20
2022-09-04T06:48:49.392Z,1.20
2022-09-04T06:49:49.388Z,1.00
2022-09-04T06:50:49.405Z,1.20
2022-09-04T06:51:49.382Z,1.20
2022-09-04T06:52:49.362Z,1.30
2022-09-04T06:53:49.371Z,1.30
2022-09-04T06:54:49.373Z,1.20
2022-09-04T06:55:49.358Z,1.20
2022-09-04T06:56:49.348Z,1.40
2022-09-04T06:57:49.321Z,1.50
2022-09-04T06:58:49.319Z,1.50
2022-09-04T06:59:49.323Z,1.50
2022-09-04T07:00:49.310Z,1.70
2022-09-04T07:01:49.356Z,1.40
2022-09-04T07:02:49.371Z,1.70
2022-09-04T07:03:49.320Z,1.50
2022-09-04T07:04:49.349Z,1.50
2022-09-04T07:05:49.278Z,1.50
2022-09-04T07:06:49.253Z,1.40
2022-09-04T07:07:49.272Z,1.60
2022-09-04T07:08:49.248Z,1.60
2022-09-04T07:09:49.273Z,1.50
2022-09-04T07:10:49.251Z,1.40
2022-09-04T07:11:49.237Z,1.40
2022-09-04T07:12:49.213Z,1.40
2022-09-04T07:13:49.214Z,1.50
2022-09-04T07:14:50.239Z,1.60
2022-09-04T07:15:49.279Z,1.50
2022-09-04T07:16:49.199Z,1.70
2022-09-04T07:17:49.194Z,1.80
2022-09-04T07:18:49.185Z,2.10
2022-09-04T07:19:49.201Z,3.50
2022-09-04T07:20:49.176Z,2.30
2022-09-04T07:21:49.159Z,1.90
2022-09-04T07:22:49.155Z,1.70
2022-09-04T07:23:49.149Z,1.60
2022-09-04T07:24:49.171Z,1.60
2022-09-04T07:25:49.135Z,2.00
2022-09-04T07:26:49.124Z,1.70
2022-09-04T07:27:49.123Z,1.60
2022-09-04T07:28:49.117Z,1.60
2022-09-04T07:29:49.102Z,1.30
2022-09-04T07:30:49.092Z,1.30
2022-09-04T07:31:49.135Z,1.50
2022-09-04T07:32:49.141Z,1.50
2022-09-04T07:33:49.081Z,1.10
2022-09-04T07:34:49.094Z,1.20
2022-09-04T07:35:49.070Z,1.20
2022-09-04T07:36:49.070Z,1.20
2022-09-04T07:37:49.049Z,1.30
2022-09-04T07:38:50.534Z,1.20
2022-09-04T07:39:49.165Z,1.30
2022-09-04T07:40:49.030Z,1.20
2022-09-04T07:41:49.030Z,1.20
2022-09-04T07:42:49.014Z,1.50
2022-09-04T07:43:53.972Z,1.30
2022-09-04T07:44:51.025Z,1.60
2022-09-04T07:45:49.029Z,1.30
2022-09-04T07:46:48.990Z,1.30
2022-09-04T07:47:48.989Z,1.20
2022-09-04T07:48:49.001Z,1.50
2022-09-04T07:49:48.989Z,1.20
2022-09-04T07:50:48.956Z,1.10
2022-09-04T07:51:48.958Z,1.20
2022-09-04T07:52:49.962Z,1.10
2022-09-04T07:53:48.938Z,1.50
2022-09-04T07:54:48.984Z,1.40
2022-09-04T07:55:48.929Z,1.40
2022-09-04T07:56:48.922Z,1.60
2022-09-04T07:57:48.913Z,1.50
2022-09-04T07:58:48.902Z,1.40
2022-09-04T07:59:48.920Z,1.40
2022-09-04T08:00:48.897Z,1.30
2022-09-04T08:01:48.926Z,1.40
2022-09-04T08:02:48.883Z,1.60
2022-09-04T08:03:54.443Z,2.10
2022-09-04T08:04:49.958Z,2.00
2022-09-04T08:05:48.886Z,2.10
2022-09-04T08:06:48.842Z,2.20
2022-09-04T08:07:48.835Z,2.30
2022-09-04T08:08:48.824Z,1.90
2022-09-04T08:09:48.838Z,1.60
2022-09-04T08:10:48.809Z,1.60
2022-09-04T08:11:48.801Z,2.10
2022-09-04T08:12:48.801Z,2.60
2022-09-04T08:13:48.786Z,2.80
2022-09-04T08:14:49.836Z,1.90
2022-09-04T08:15:48.824Z,1.70
2022-09-04T08:16:48.775Z,2.20
2022-09-04T08:17:48.765Z,2.20
2022-09-04T08:18:48.768Z,1.70
2022-09-04T08:19:48.772Z,2.00
2022-09-04T08:20:48.733Z,2.00
2022-09-04T08:21:48.730Z,2.00
2022-09-04T08:22:48.730Z,1.90
2022-09-04T08:23:48.744Z,1.90
2022-09-04T08:24:48.729Z,1.80
2022-09-04T08:25:48.703Z,1.90
2022-09-04T08:26:48.714Z,2.00
2022-09-04T08:27:48.690Z,1.90
2022-09-04T08:28:48.677Z,2.00
2022-09-04T08:29:49.701Z,2.20
2022-09-04T08:30:48.886Z,2.00
2022-09-04T08:31:48.661Z,2.00
2022-09-04T08:32:48.649Z,1.90
2022-09-04T08:33:48.668Z,1.90
2022-09-04T08:34:48.654Z,2.00
2022-09-04T08:35:48.647Z,2.00
2022-09-04T08:36:48.638Z,2.30
2022-09-04T08:37:48.615Z,2.10
2022-09-04T08:38:48.624Z,2.30
2022-09-04T08:39:48.677Z,2.70
2022-09-04T08:40:50.139Z,2.30
2022-09-04T08:41:48.602Z,1.80
2022-09-04T08:42:48.588Z,2.30
2022-09-04T08:43:48.587Z,2.20
2022-09-04T08:44:48.604Z,1.70
2022-09-04T08:45:48.632Z,1.60
2022-09-04T08:46:49.375Z,2.10
2022-09-04T08:47:48.578Z,2.10
2022-09-04T08:48:48.599Z,2.00
2022-09-04T08:49:48.588Z,2.10
2022-09-04T08:50:48.567Z,2.20
2022-09-04T08:51:48.532Z,2.10
2022-09-04T08:52:48.521Z,2.40
2022-09-04T08:53:48.512Z,2.20
2022-09-04T08:54:48.521Z,2.00
2022-09-04T08:55:48.557Z,2.30
2022-09-04T08:56:48.483Z,2.10
2022-09-04T08:57:48.481Z,1.90
2022-09-04T08:58:48.484Z,1.80
2022-09-04T08:59:48.473Z,1.90
2022-09-04T09:00:49.459Z,2.00
2022-09-04T09:01:48.525Z,2.20
2022-09-04T09:02:48.530Z,1.70
2022-09-04T09:03:48.454Z,2.00
2022-09-04T09:04:48.463Z,1.70
2022-09-04T09:05:48.421Z,1.60
2022-09-04T09:06:48.426Z,1.70
2022-09-04T09:07:48.423Z,1.80
2022-09-04T09:08:48.405Z,1.80
2022-09-04T09:09:48.420Z,1.50
2022-09-04T09:10:48.412Z,1.40
2022-09-04T09:11:48.387Z,1.50
2022-09-04T09:12:48.397Z,1.80
2022-09-04T09:13:48.375Z,1.80
2022-09-04T09:14:48.402Z,1.50
2022-09-04T09:15:48.371Z,1.70
2022-09-04T09:16:48.420Z,1.70
2022-09-04T09:17:48.330Z,1.70
2022-09-04T09:18:48.342Z,2.00
2022-09-04T09:19:48.426Z,1.50
2022-09-04T09:20:48.315Z,1.80
2022-09-04T09:21:48.313Z,1.70
2022-09-04T09:22:48.327Z,1.80
2022-09-04T09:23:48.311Z,1.80
2022-09-04T09:24:48.333Z,1.60
2022-09-04T09:25:48.283Z,1.50
2022-09-04T09:26:48.289Z,1.60
2022-09-04T09:27:48.278Z,1.50
2022-09-04T09:28:48.269Z,1.70
2022-09-04T09:29:48.283Z,1.60
2022-09-04T09:30:48.362Z,1.40
2022-09-04T09:31:48.546Z,1.50
2022-09-04T09:32:48.250Z,1.50
2022-09-04T09:33:48.221Z,1.50
2022-09-04T09:34:48.244Z,1.50
2022-09-04T09:35:48.216Z,1.40
2022-09-04T09:36:48.224Z,1.30
2022-09-04T09:37:48.218Z,1.30
2022-09-04T09:38:48.214Z,1.50
2022-09-04T09:39:48.231Z,1.30
2022-09-04T09:40:48.184Z,1.70
2022-09-04T09:41:48.160Z,1.60
2022-09-04T09:42:48.164Z,1.30
2022-09-04T09:43:48.180Z,1.30
2022-09-04T09:44:48.168Z,1.40
2022-09-04T09:45:48.152Z,1.40
2022-09-04T09:46:48.148Z,1.60
2022-09-04T09:47:48.123Z,1.60
2022-09-04T09:48:48.124Z,1.40
2022-09-04T09:49:48.136Z,1.40
2022-09-04T09:50:48.094Z,1.40
2022-09-04T09:51:49.114Z,1.20
2022-09-04T09:52:48.154Z,1.10
2022-09-04T09:53:48.082Z,1.30
2022-09-04T09:54:48.105Z,1.40
2022-09-04T09:55:48.078Z,1.30
2022-09-04T09:56:53.749Z,1.20
2022-09-04T09:57:49.067Z,1.20
2022-09-04T09:58:48.057Z,1.30
2022-09-04T09:59:48.061Z,1.10
2022-09-04T10:00:48.071Z,1.10
2022-09-04T10:01:48.093Z,1.10
2022-09-04T10:02:48.061Z,1.10
2022-09-04T10:03:48.045Z,1.30
2022-09-04T10:04:48.026Z,1.50
2022-09-04T10:05:47.999Z,1.20
2022-09-04T10:06:48.002Z,1.10
2022-09-04T10:07:47.995Z,1.00
2022-09-04T10:08:47.999Z,1.10
2022-09-04T10:09:48.014Z,1.00
2022-09-04T10:10:47.965Z,1.20
2022-09-04T10:11:47.960Z,1.20
2022-09-04T10:12:47.984Z,1.00
2022-09-04T10:13:47.956Z,1.00
2022-09-04T10:14:47.963Z,1.00
2022-09-04T10:15:47.948Z,1.00
2022-09-04T10:16:47.987Z,1.00
2022-09-04T10:17:47.914Z,1.10
2022-09-04T10:18:47.922Z,1.00
2022-09-04T10:19:47.924Z,1.20
2022-09-04T10:20:47.910Z,1.30
2022-09-04T10:21:47.900Z,1.30
2022-09-04T10:22:47.895Z,1.00
2022-09-04T10:23:47.879Z,1.20
2022-09-04T10:24:47.892Z,1.20
2022-09-04T10:25:47.861Z,1.10
2022-09-04T10:26:47.845Z,1.30
2022-09-04T10:27:47.863Z,1.20
2022-09-04T10:28:47.853Z,1.00
2022-09-04T10:29:47.842Z,1.10
2022-09-04T10:30:47.867Z,1.00
2022-09-04T10:31:47.832Z,1.00
2022-09-04T10:32:47.815Z,1.10
2022-09-04T10:33:47.811Z,0.90
2022-09-04T10:34:47.807Z,1.00
2022-09-04T10:35:47.801Z,1.10
2022-09-04T10:36:47.781Z,1.10
2022-09-04T10:37:47.873Z,1.00
2022-09-04T10:38:47.769Z,1.10
2022-09-04T10:39:47.827Z,1.20
2022-09-04T10:40:51.295Z,1.20
2022-09-04T10:41:48.742Z,1.00
2022-09-04T10:42:47.739Z,1.00
2022-09-04T10:43:47.732Z,1.00
2022-09-04T10:44:47.755Z,1.20
2022-09-04T10:45:47.780Z,1.20
2022-09-04T10:46:47.714Z,1.30
2022-09-04T10:47:47.715Z,1.30
2022-09-04T10:48:47.714Z,1.20
2022-09-04T10:49:47.726Z,1.10
2022-09-04T10:50:47.700Z,1.10
2022-09-04T10:51:47.690Z,1.00
2022-09-04T10:52:47.679Z,1.20
2022-09-04T10:53:47.662Z,1.10
2022-09-04T10:54:47.681Z,1.00
2022-09-04T10:55:47.647Z,1.50
2022-09-04T10:56:47.761Z,1.20
2022-09-04T10:57:47.659Z,1.30
2022-09-04T10:58:47.614Z,1.60
2022-09-04T10:59:48.649Z,1.30
2022-09-04T11:00:49.440Z,1.30
2022-09-04T11:01:47.593Z,1.30
2022-09-04T11:02:47.611Z,1.20
2022-09-04T11:03:47.641Z,1.30
2022-09-04T11:04:47.632Z,1.20
2022-09-04T11:05:47.736Z,1.20
2022-09-04T11:06:47.585Z,1.30
2022-09-04T11:07:47.573Z,1.10
2022-09-04T11:08:49.668Z,1.10
2022-09-04T11:09:47.604Z,1.00
2022-09-04T11:10:47.568Z,1.00
2022-09-04T11:11:47.675Z,1.00
2022-09-04T11:12:48.039Z,0.70
2022-09-04T11:13:51.277Z,0.90
2022-09-04T11:14:48.230Z,1.00
2022-09-04T11:15:48.152Z,1.10
2022-09-04T11:16:47.908Z,1.10
2022-09-04T11:17:47.717Z,0.90
2022-09-04T11:18:47.654Z,0.90
2022-09-04T11:19:47.523Z,0.90
2022-09-04T11:20:47.505Z,0.70
2022-09-04T11:21:47.512Z,0.70
2022-09-04T11:22:47.497Z,0.90
2022-09-04T11:23:47.490Z,0.80
2022-09-04T11:24:47.509Z,0.80
2022-09-04T11:25:47.487Z,0.90
2022-09-04T11:26:47.481Z,1.00
2022-09-04T11:27:47.493Z,1.00
2022-09-04T11:28:47.468Z,1.20
2022-09-04T11:29:47.465Z,1.00
2022-09-04T11:30:47.875Z,0.90
2022-09-04T11:31:47.500Z,1.00
2022-09-04T11:32:47.446Z,1.10
2022-09-04T11:33:47.431Z,1.00
2022-09-04T11:34:47.514Z,1.00
2022-09-04T11:35:47.442Z,1.00
2022-09-04T11:36:47.423Z,0.90
2022-09-04T11:37:47.410Z,1.00
2022-09-04T11:38:48.748Z,1.10
2022-09-04T11:39:47.469Z,1.00
2022-09-04T11:40:47.392Z,1.20
2022-09-04T11:41:47.380Z,0.90
2022-09-04T11:42:47.401Z,0.90
2022-09-04T11:43:47.380Z,1.00
2022-09-04T11:44:47.398Z,0.90
2022-09-04T11:45:48.004Z,1.00
2022-09-04T11:46:47.362Z,0.90
2022-09-04T11:47:47.361Z,1.50
2022-09-04T11:48:47.368Z,1.00
2022-09-04T11:49:47.369Z,1.10
2022-09-04T11:50:47.358Z,1.00
2022-09-04T11:51:47.351Z,0.80
2022-09-04T11:52:47.327Z,0.90
2022-09-04T11:53:47.317Z,0.90
2022-09-04T11:54:47.341Z,0.90
2022-09-04T11:55:52.066Z,0.80
2022-09-04T11:56:48.338Z,0.90
2022-09-04T11:57:47.291Z,0.80
2022-09-04T11:58:47.279Z,0.90
2022-09-04T11:59:47.290Z,0.80
2022-09-04T12:00:47.257Z,0.80
2022-09-04T12:01:48.084Z,0.80
2022-09-04T12:02:48.269Z,0.80
2022-09-04T12:03:47.271Z,0.90
2022-09-04T12:04:47.266Z,0.90
2022-09-04T12:05:47.231Z,1.00
2022-09-04T12:06:47.237Z,0.70
2022-09-04T12:07:47.229Z,0.70
2022-09-04T12:08:47.218Z,0.70
2022-09-04T12:09:47.234Z,0.70
2022-09-04T12:10:47.193Z,0.70
2022-09-04T12:11:47.211Z,0.70
2022-09-04T12:12:47.256Z,0.80
2022-09-04T12:13:47.186Z,0.90
2022-09-04T12:14:47.198Z,0.80
2022-09-04T12:15:47.164Z,0.80
2022-09-04T12:16:47.215Z,0.80
2022-09-04T12:17:49.727Z,0.80
2022-09-04T12:18:48.187Z,0.90
2022-09-04T12:19:47.210Z,1.20
2022-09-04T12:20:47.134Z,1.00
2022-09-04T12:21:47.124Z,1.40
2022-09-04T12:22:47.133Z,1.50
2022-09-04T12:23:47.141Z,1.00
2022-09-04T12:24:47.144Z,0.90
2022-09-04T12:25:47.102Z,0.90
2022-09-04T12:26:51.715Z,0.90
2022-09-04T12:27:48.088Z,0.70
2022-09-04T12:28:47.083Z,0.90
2022-09-04T12:29:47.100Z,0.80
2022-09-04T12:30:47.071Z,0.80
2022-09-04T12:31:51.321Z,0.90
2022-09-04T12:32:47.080Z,0.80
2022-09-04T12:33:47.137Z,0.80
2022-09-04T12:34:47.084Z,1.00
2022-09-04T12:35:47.040Z,0.90
2022-09-04T12:36:48.039Z,0.90
2022-09-04T12:37:47.016Z,0.90
2022-09-04T12:38:47.147Z,1.00
2022-09-04T12:39:47.141Z,0.90
2022-09-04T12:40:47.008Z,0.80
2022-09-04T12:41:49.860Z,0.80
2022-09-04T12:42:47.991Z,0.90
2022-09-04T12:43:47.001Z,1.00
2022-09-04T12:44:47.006Z,0.90
2022-09-04T12:45:46.991Z,1.00
2022-09-04T12:46:46.965Z,0.90
2022-09-04T12:47:46.972Z,1.00
2022-09-04T12:48:46.977Z,0.80
2022-09-04T12:49:46.986Z,1.00
2022-09-04T12:50:46.935Z,0.90
2022-09-04T12:51:46.964Z,0.70
2022-09-04T12:52:46.929Z,0.90
2022-09-04T12:53:52.439Z,0.80
2022-09-04T12:54:47.944Z,0.90
2022-09-04T12:55:46.926Z,0.80
2022-09-04T12:56:49.078Z,0.80
2022-09-04T12:57:47.091Z,0.80
2022-09-04T12:58:46.985Z,0.70
2022-09-04T12:59:46.891Z,0.80
2022-09-04T13:00:49.683Z,0.90
2022-09-04T13:01:47.063Z,0.80
2022-09-04T13:02:46.870Z,0.90
2022-09-04T13:03:46.903Z,0.90
2022-09-04T13:04:46.867Z,0.80
2022-09-04T13:05:53.127Z,0.70
2022-09-04T13:06:52.788Z,0.80
2022-09-04T13:07:48.890Z,1.10
2022-09-04T13:08:46.874Z,0.90
2022-09-04T13:09:53.169Z,0.90
2022-09-04T13:10:47.824Z,0.90
2022-09-04T13:11:46.808Z,0.70
2022-09-04T13:12:46.792Z,0.70
2022-09-04T13:13:46.881Z,0.90
2022-09-04T13:14:47.469Z,0.90
2022-09-04T13:15:46.778Z,0.80
2022-09-04T13:16:46.765Z,0.70
2022-09-04T13:17:46.795Z,0.90
2022-09-04T13:18:46.836Z,1.00